Time;durP1;ratioP1;P1;durP2;ratioP2;P2;SDS_P1;SDS_P2;PMS_P1;PMS_P2;Temp;Humidity;BMP_temperature;BMP_pressure;BME280_temperature;BME280_humidity;BME280_pressure;Samples;Min_cycle;Max_cycle;Signal;HPM_P1;HPM_P2
2024/03/26 00:02:09;;;;;;;;;;;;;;;4.25;74.77;94696.88;5043906;28;19967;-70
2024/03/26 00:04:35;;;;;;;;;;;;;;;4.23;74.52;94692.91;5043803;28;19997;-67
2024/03/26 00:07:01;;;;;;;;;;;;;;;4.20;73.74;94688.97;5044299;28;19952;-68
2024/03/26 00:09:27;;;;;;;;;;;;;;;4.19;75.12;94682.19;5043725;28;19961;-66
2024/03/26 00:11:53;;;;;;;;;;;;;;;4.17;74.91;94686.00;5043646;28;19964;-67
2024/03/26 00:14:19;;;;;;;;;;;;;;;4.14;75.90;94681.28;5043713;28;19937;-67
2024/03/26 00:16:44;;;;;;;;;;;;;;;4.13;76.03;94679.69;5043677;28;19931;-67
2024/03/26 00:19:10;;;;;;;;;;;;;;;4.11;75.76;94666.94;5043754;28;19937;-75
2024/03/26 00:21:37;;;;;;;;;;;;;;;4.11;76.53;94653.94;5044482;28;19935;-77
2024/03/26 00:24:03;;;;;;;;;;;;;;;4.10;77.16;94660.16;5043640;28;19936;-77
2024/03/26 00:26:29;;;;;;;;;;;;;;;4.10;76.92;94654.19;5043650;28;19936;-76
2024/03/26 00:28:55;;;;;;;;;;;;;;;4.08;77.16;94646.63;5043813;28;20004;-76
2024/03/26 00:31:21;;;;;;;;;;;;;;;4.08;76.97;94638.84;5043539;28;19956;-77
2024/03/26 00:33:47;;;;;;;;;;;;;;;4.09;77.35;94639.63;5044315;28;19941;-76
2024/03/26 00:36:12;;;;;;;;;;;;;;;4.05;77.14;94632.31;5043526;28;20009;-76
2024/03/26 00:38:38;;;;;;;;;;;;;;;4.06;77.05;94639.06;5043692;28;19938;-67
2024/03/26 00:41:04;;;;;;;;;;;;;;;4.07;76.40;94637.25;5047425;28;19940;-76
2024/03/26 00:43:30;;;;;;;;;;;;;;;4.09;77.63;94644.81;5047270;28;20164;-75
2024/03/26 00:45:56;;;;;;;;;;;;;;;4.09;76.98;94637.03;5047206;28;19936;-75
2024/03/26 00:48:22;;;;;;;;;;;;;;;4.07;78.72;94621.69;5047218;28;20217;-76
2024/03/26 00:50:48;;;;;;;;;;;;;;;4.05;77.93;94629.72;5047092;28;19949;-76
2024/03/26 00:53:14;;;;;;;;;;;;;;;4.02;79.19;94631.94;5047904;28;19933;-75
2024/03/26 00:55:39;;;;;;;;;;;;;;;4.00;78.55;94631.38;5047590;28;19975;-71
2024/03/26 00:58:05;;;;;;;;;;;;;;;3.95;77.94;94624.25;5046470;28;19948;-74
2024/03/26 01:00:31;;;;;;;;;;;;;;;3.92;78.33;94626.50;5029464;28;19949;-74
2024/03/26 01:02:57;;;;;;;;;;;;;;;3.88;79.15;94631.31;5046987;28;19941;-72
2024/03/26 01:05:23;;;;;;;;;;;;;;;3.84;78.54;94625.81;5046917;28;20010;-73
2024/03/26 01:07:48;;;;;;;;;;;;;;;3.81;79.38;94628.03;5045905;28;19944;-73
2024/03/26 01:10:14;;;;;;;;;;;;;;;3.77;79.49;94616.53;5046255;28;19944;-72
2024/03/26 01:12:40;;;;;;;;;;;;;;;3.73;79.44;94618.75;5047477;28;20235;-73
2024/03/26 01:15:06;;;;;;;;;;;;;;;3.70;79.30;94614.03;5046821;28;19928;-76
2024/03/26 01:17:32;;;;;;;;;;;;;;;3.67;79.71;94617.03;5046269;28;19938;-77
2024/03/26 01:19:58;;;;;;;;;;;;;;;3.64;80.31;94609.72;5046686;28;19938;-77
2024/03/26 01:22:24;;;;;;;;;;;;;;;3.62;80.68;94609.16;5046877;28;20160;-76
2024/03/26 01:24:49;;;;;;;;;;;;;;;3.58;80.35;94606.19;5028946;28;19973;-77
2024/03/26 01:27:15;;;;;;;;;;;;;;;3.56;80.98;94610.03;5046534;28;19948;-77
2024/03/26 01:29:41;;;;;;;;;;;;;;;3.53;80.99;94607.84;5045594;28;19990;-77
2024/03/26 01:32:08;;;;;;;;;;;;;;;3.51;79.60;94613.28;5047194;28;20259;-76
2024/03/26 01:34:34;;;;;;;;;;;;;;;3.48;81.67;94613.69;5046396;28;20228;-76
2024/03/26 01:36:59;;;;;;;;;;;;;;;3.44;81.08;94615.97;5046905;28;19935;-72
2024/03/26 01:39:25;;;;;;;;;;;;;;;3.43;82.71;94609.19;5028981;28;19982;-72
2024/03/26 01:41:51;;;;;;;;;;;;;;;3.39;82.94;94600.25;5046757;28;19943;-73
2024/03/26 01:44:17;;;;;;;;;;;;;;;3.38;83.21;94592.69;5046172;28;20216;-72
2024/03/26 01:46:43;;;;;;;;;;;;;;;3.35;83.32;94586.16;5046971;28;19931;-72
2024/03/26 01:49:09;;;;;;;;;;;;;;;3.34;83.76;94599.31;5046392;28;19967;-72
2024/03/26 01:51:37;;;;;;;;;;;;;;;3.33;83.14;94593.34;5045726;28;19946;-77
2024/03/26 01:54:03;;;;;;;;;;;;;;;3.32;83.66;94591.78;5046067;28;19959;-77
2024/03/26 01:56:30;;;;;;;;;;;;;;;3.31;84.30;94579.03;5046573;28;19931;-76
2024/03/26 01:58:56;;;;;;;;;;;;;;;3.31;85.31;94576.44;5045914;28;19931;-77
2024/03/26 02:01:22;;;;;;;;;;;;;;;3.29;84.87;94574.06;5046187;28;19993;-77
2024/03/26 02:03:48;;;;;;;;;;;;;;;3.27;85.29;94572.72;5045917;28;19934;-77
2024/03/26 02:06:14;;;;;;;;;;;;;;;3.26;85.95;94569.34;5045830;28;19941;-77
2024/03/26 02:08:41;;;;;;;;;;;;;;;3.24;86.38;94566.19;5045949;28;19943;-71
2024/03/26 02:11:07;;;;;;;;;;;;;;;3.23;85.48;94562.00;5045672;28;19935;-74
2024/03/26 02:13:33;;;;;;;;;;;;;;;3.21;85.66;94558.84;5045623;28;19946;-71
2024/03/26 02:15:59;;;;;;;;;;;;;;;3.21;85.54;94558.84;5045654;28;19937;-70
2024/03/26 02:18:25;;;;;;;;;;;;;;;3.20;85.65;94559.84;5045508;28;20215;-70
2024/03/26 02:20:51;;;;;;;;;;;;;;;3.20;86.34;94544.31;5046032;28;20001;-71
2024/03/26 02:23:20;;;;;;;;;;;;;;;3.19;86.69;94546.13;5045451;28;19935;-70
2024/03/26 02:25:46;;;;;;;;;;;;;;;3.18;86.59;94544.53;5045383;28;19946;-70
2024/03/26 02:28:11;;;;;;;;;;;;;;;3.18;86.85;94549.69;5045405;28;19939;-77
2024/03/26 02:30:37;;;;;;;;;;;;;;;3.17;87.94;94542.97;5045192;28;19985;-72
2024/03/26 02:33:03;;;;;;;;;;;;;;;3.17;86.52;94537.78;5045741;28;19982;-73
2024/03/26 02:35:29;;;;;;;;;;;;;;;3.16;87.10;94550.94;5045284;28;20232;-72
2024/03/26 02:37:55;;;;;;;;;;;;;;;3.16;87.30;94546.53;5045214;28;19970;-72
2024/03/26 02:40:21;;;;;;;;;;;;;;;3.16;86.60;94550.94;5045175;28;19937;-72
2024/03/26 02:42:47;;;;;;;;;;;;;;;3.15;86.48;94551.94;5045105;28;19939;-72
2024/03/26 02:45:13;;;;;;;;;;;;;;;3.17;87.02;94552.50;5045134;28;19941;-67
2024/03/26 02:47:39;;;;;;;;;;;;;;;3.15;87.79;94544.16;5045000;28;19947;-67
2024/03/26 02:50:05;;;;;;;;;;;;;;;3.11;88.26;94546.41;5044989;28;19962;-70
2024/03/26 02:52:31;;;;;;;;;;;;;;;3.11;89.67;94543.00;5044841;28;19964;-70
2024/03/26 02:54:56;;;;;;;;;;;;;;;3.08;89.36;94543.47;5045655;28;20110;-70
2024/03/26 02:57:22;;;;;;;;;;;;;;;3.06;87.50;94533.31;5045390;28;20001;-70
2024/03/26 02:59:48;;;;;;;;;;;;;;;3.05;88.53;94532.53;5044733;28;19949;-71
2024/03/26 03:02:14;;;;;;;;;;;;;;;3.04;87.91;94536.13;5044366;28;19939;-71
2024/03/26 03:04:40;;;;;;;;;;;;;;;3.02;88.75;94532.97;5044714;28;19939;-71
2024/03/26 03:07:05;;;;;;;;;;;;;;;3.02;88.06;94529.56;5045454;28;19939;-77
2024/03/26 03:09:31;;;;;;;;;;;;;;;3.02;88.38;94539.94;5044571;28;19972;-77
2024/03/26 03:11:57;;;;;;;;;;;;;;;3.01;88.47;94528.78;5045279;28;20057;-78
2024/03/26 03:14:23;;;;;;;;;;;;;;;3.02;89.56;94532.16;5044509;28;19941;-78
2024/03/26 03:16:49;;;;;;;;;;;;;;;3.01;91.08;94526.19;5044510;28;19938;-77
2024/03/26 03:19:14;;;;;;;;;;;;;;;3.02;90.93;94525.22;5044439;28;19933;-77
2024/03/26 03:21:40;;;;;;;;;;;;;;;3.02;91.64;94517.44;5044401;28;19942;-78
2024/03/26 03:24:06;;;;;;;;;;;;;;;3.05;92.36;94516.22;5044448;28;19998;-74
2024/03/26 03:26:32;;;;;;;;;;;;;;;3.07;91.16;94510.78;5026826;28;19935;-70
2024/03/26 03:28:58;;;;;;;;;;;;;;;3.10;92.61;94505.19;5044496;28;19963;-71
2024/03/26 03:31:23;;;;;;;;;;;;;;;3.13;91.98;94515.09;5044194;28;19939;-70
2024/03/26 03:33:49;;;;;;;;;;;;;;;3.17;92.56;94524.00;5044230;28;19941;-71
2024/03/26 03:36:15;;;;;;;;;;;;;;;3.19;92.56;94502.09;5044198;28;19936;-70
2024/03/26 03:38:41;;;;;;;;;;;;;;;3.19;93.65;94494.31;5044144;28;19935;-71
2024/03/26 03:41:07;;;;;;;;;;;;;;;3.20;93.52;94495.88;5044666;28;19939;-73
2024/03/26 03:43:33;;;;;;;;;;;;;;;3.23;94.25;94498.06;5044131;28;20009;-71
2024/03/26 03:45:59;;;;;;;;;;;;;;;3.25;93.01;94498.63;5044083;28;20043;-72
2024/03/26 03:48:24;;;;;;;;;;;;;;;3.28;93.07;94497.38;5044845;28;19943;-72
2024/03/26 03:50:50;;;;;;;;;;;;;;;3.29;94.07;94504.13;5044545;28;20001;-73
2024/03/26 03:53:16;;;;;;;;;;;;;;;3.32;93.24;94498.53;5043924;28;19958;-72
2024/03/26 03:55:42;;;;;;;;;;;;;;;3.35;93.57;94494.69;5043940;28;19938;-72
2024/03/26 03:58:10;;;;;;;;;;;;;;;3.36;94.44;94501.44;5043957;28;19958;-72
2024/03/26 04:00:36;;;;;;;;;;;;;;;3.37;94.38;94490.88;5044716;28;20092;-68
2024/03/26 04:03:02;;;;;;;;;;;;;;;3.39;93.81;94493.25;5043990;28;20262;-77
2024/03/26 04:05:28;;;;;;;;;;;;;;;3.40;93.62;94490.44;5044430;28;19948;-77
2024/03/26 04:07:54;;;;;;;;;;;;;;;3.41;93.83;94486.06;5044494;28;19935;-78
2024/03/26 04:10:20;;;;;;;;;;;;;;;3.38;94.43;94476.94;5044668;28;19940;-77
2024/03/26 04:12:45;;;;;;;;;;;;;;;3.35;93.66;94479.94;5044106;28;19950;-77
2024/03/26 04:15:11;;;;;;;;;;;;;;;3.33;93.97;94476.00;5047909;28;19940;-77
2024/03/26 04:17:37;;;;;;;;;;;;;;;3.31;94.56;94473.63;5047855;28;19933;-76
2024/03/26 04:20:03;;;;;;;;;;;;;;;3.28;95.70;94489.63;5030848;28;20238;-67
2024/03/26 04:22:29;;;;;;;;;;;;;;;3.26;96.35;94491.63;5047783;28;19931;-70
2024/03/26 04:24:55;;;;;;;;;;;;;;;3.25;97.13;94508.19;5048179;28;19945;-71
2024/03/26 04:27:21;;;;;;;;;;;;;;;3.23;96.50;94500.66;5047939;28;19937;-70
2024/03/26 04:29:46;;;;;;;;;;;;;;;3.21;95.54;94497.47;5047413;28;19969;-71
2024/03/26 04:32:12;;;;;;;;;;;;;;;3.21;95.32;94486.31;5048293;28;19960;-70
2024/03/26 04:34:39;;;;;;;;;;;;;;;3.18;94.86;94484.97;5047495;28;19985;-70
2024/03/26 04:37:04;;;;;;;;;;;;;;;3.17;95.39;94485.97;5047561;28;19942;-67
2024/03/26 04:39:30;;;;;;;;;;;;;;;3.15;97.86;94490.59;5048261;28;20229;-74
2024/03/26 04:41:56;;;;;;;;;;;;;;;3.08;95.96;94487.28;5047353;28;19943;-74
2024/03/26 04:44:22;;;;;;;;;;;;;;;3.04;95.83;94478.38;5047354;28;20197;-74
2024/03/26 04:46:48;;;;;;;;;;;;;;;3.05;96.80;94490.31;5047282;28;19976;-74
2024/03/26 04:49:14;;;;;;;;;;;;;;;3.07;96.73;94480.53;5048054;28;19947;-74
2024/03/26 04:51:40;;;;;;;;;;;;;;;3.09;97.30;94472.53;5047211;28;19939;-74
2024/03/26 04:54:05;;;;;;;;;;;;;;;3.11;97.36;94471.31;5047967;28;20266;-72
2024/03/26 04:56:31;;;;;;;;;;;;;;;3.12;97.92;94465.13;5047164;28;19936;-71
2024/03/26 04:58:57;;;;;;;;;;;;;;;3.14;98.21;94470.88;5047029;28;19950;-67
2024/03/26 05:01:23;;;;;;;;;;;;;;;3.16;97.00;94460.28;5047028;28;19935;-67
2024/03/26 05:03:49;;;;;;;;;;;;;;;3.18;96.54;94460.88;5046998;28;19943;-68
2024/03/26 05:06:15;;;;;;;;;;;;;;;3.20;97.09;94457.03;5046907;28;19943;-67
2024/03/26 05:08:43;;;;;;;;;;;;;;;3.21;98.19;94456.03;5047114;28;19960;-68
2024/03/26 05:11:09;;;;;;;;;;;;;;;3.25;98.04;94464.94;5047125;28;19941;-67
2024/03/26 05:13:35;;;;;;;;;;;;;;;3.27;100.00;94469.88;5046797;28;20182;-76
2024/03/26 05:16:01;;;;;;;;;;;;;;;3.27;97.84;94469.88;5046802;28;19933;-76
2024/03/26 05:18:27;;;;;;;;;;;;;;;3.26;98.45;94476.09;5046705;28;19940;-75
2024/03/26 05:20:52;;;;;;;;;;;;;;;3.26;97.92;94470.91;5046644;28;19943;-75
2024/03/26 05:23:18;;;;;;;;;;;;;;;3.27;97.79;94474.28;5046629;28;19936;-76
2024/03/26 05:25:44;;;;;;;;;;;;;;;3.22;97.03;94462.78;5045922;28;19936;-76
2024/03/26 05:28:10;;;;;;;;;;;;;;;3.22;96.60;94460.19;5046592;28;20229;-75
2024/03/26 05:30:38;;;;;;;;;;;;;;;3.22;96.22;94462.00;5046374;28;19972;-76
2024/03/26 05:33:04;;;;;;;;;;;;;;;3.20;96.74;94462.22;5046412;28;20141;-67
2024/03/26 05:35:30;;;;;;;;;;;;;;;3.18;97.96;94472.00;5046962;28;20220;-76
2024/03/26 05:37:58;;;;;;;;;;;;;;;3.17;97.52;94474.81;5046348;28;19945;-76
2024/03/26 05:40:24;;;;;;;;;;;;;;;3.18;97.80;94468.63;5046272;28;19947;-76
2024/03/26 05:42:50;;;;;;;;;;;;;;;3.20;98.25;94472.56;5046276;28;19936;-76
2024/03/26 05:45:16;;;;;;;;;;;;;;;3.23;98.38;94464.38;5047027;28;20099;-76
2024/03/26 05:47:42;;;;;;;;;;;;;;;3.27;96.86;94449.16;5046014;28;19975;-76
2024/03/26 05:50:08;;;;;;;;;;;;;;;3.32;97.28;94446.72;5046172;28;19941;-67
2024/03/26 05:52:34;;;;;;;;;;;;;;;3.35;97.20;94443.69;5046005;28;19958;-73
2024/03/26 05:54:59;;;;;;;;;;;;;;;3.38;97.93;94445.03;5046036;28;19983;-73
2024/03/26 05:57:25;;;;;;;;;;;;;;;3.34;95.96;94436.94;5046522;28;19937;-72
2024/03/26 05:59:51;;;;;;;;;;;;;;;3.27;96.53;94427.66;5045247;28;19952;-72
2024/03/26 06:02:17;;;;;;;;;;;;;;;3.25;98.33;94425.28;5046390;28;19944;-72
2024/03/26 06:04:45;;;;;;;;;;;;;;;3.26;98.30;94429.47;5045861;28;19962;-72
2024/03/26 06:07:11;;;;;;;;;;;;;;;3.33;98.35;94416.41;5045846;28;19942;-72
2024/03/26 06:09:37;;;;;;;;;;;;;;;3.37;98.32;94405.38;5045719;28;19958;-77
2024/03/26 06:12:03;;;;;;;;;;;;;;;3.44;99.18;94413.84;5045323;28;19934;-74
2024/03/26 06:14:29;;;;;;;;;;;;;;;3.52;98.47;94406.75;5045696;28;19937;-74
2024/03/26 06:16:55;;;;;;;;;;;;;;;3.60;99.09;94409.03;5045620;28;19938;-74
2024/03/26 06:19:21;;;;;;;;;;;;;;;3.66;97.94;94421.88;5045600;28;19946;-74
2024/03/26 06:21:47;;;;;;;;;;;;;;;3.77;98.54;94428.06;5045498;28;19939;-74
2024/03/26 06:24:12;;;;;;;;;;;;;;;3.84;98.75;94427.97;5045484;28;19948;-74
2024/03/26 06:26:38;;;;;;;;;;;;;;;3.90;100.00;94431.47;5045435;28;19931;-71
2024/03/26 06:29:04;;;;;;;;;;;;;;;3.92;98.64;94425.03;5045685;28;20044;-71
2024/03/26 06:31:30;;;;;;;;;;;;;;;3.96;98.69;94426.16;5045415;28;19938;-72
2024/03/26 06:33:56;;;;;;;;;;;;;;;4.02;99.17;94424.47;5045204;28;19961;-72
2024/03/26 06:36:21;;;;;;;;;;;;;;;4.09;98.49;94432.13;5044536;28;20004;-73
2024/03/26 06:38:47;;;;;;;;;;;;;;;4.15;98.21;94432.00;5044959;28;19932;-73
2024/03/26 06:41:13;;;;;;;;;;;;;;;4.21;97.19;94425.13;5045194;28;19933;-73
2024/03/26 06:43:39;;;;;;;;;;;;;;;4.26;98.04;94428.63;5027529;28;19937;-73
2024/03/26 06:46:05;;;;;;;;;;;;;;;4.33;96.57;94415.53;5045325;28;19939;-71
2024/03/26 06:48:32;;;;;;;;;;;;;;;4.38;97.92;94412.25;5044955;28;19933;-71
2024/03/26 06:50:57;;;;;;;;;;;;;;;4.42;96.96;94397.81;5044925;28;19943;-71
2024/03/26 06:53:23;;;;;;;;;;;;;;;4.47;96.50;94396.09;5044835;28;19953;-71
2024/03/26 06:55:49;;;;;;;;;;;;;;;4.54;98.21;94395.19;5044826;28;20200;-71
2024/03/26 06:58:22;;;;;;;;;;;;;;;4.62;97.33;94382.63;5102765;28;19949;-70
2024/03/26 07:00:50;;;;;;;;;;;;;;;4.73;95.82;94375.03;5101667;28;19942;-70
2024/03/26 07:03:15;;;;;;;;;;;;;;;4.83;95.46;94360.41;5101878;28;19938;-75
2024/03/26 07:05:41;;;;;;;;;;;;;;;4.93;95.29;94353.81;5101531;28;19938;-73
2024/03/26 07:08:07;;;;;;;;;;;;;;;5.03;94.92;94365.16;5101396;28;19956;-75
2024/03/26 07:10:33;;;;;;;;;;;;;;;5.13;93.03;94354.16;5101923;28;20022;-75
2024/03/26 07:12:59;;;;;;;;;;;;;;;5.22;90.82;94344.94;5101405;28;20010;-75
2024/03/26 07:15:24;;;;;;;;;;;;;;;5.29;88.38;94340.41;5101351;28;19941;-75
2024/03/26 07:17:50;;;;;;;;;;;;;;;5.37;88.92;94359.22;5101261;28;19949;-75
2024/03/26 07:20:16;;;;;;;;;;;;;;;5.45;87.36;94349.19;5102028;28;19937;-75
2024/03/26 07:22:42;;;;;;;;;;;;;;;5.53;86.90;94348.03;5100136;28;20118;-76
2024/03/26 07:25:08;;;;;;;;;;;;;;;5.60;87.12;94350.47;5100083;28;19975;-73
2024/03/26 07:27:34;;;;;;;;;;;;;;;5.66;86.38;94346.91;5101139;28;20215;-73
2024/03/26 07:30:04;;;;;;;;;;;;;;;5.74;86.82;94353.53;5100829;28;20129;-73
2024/03/26 07:32:29;;;;;;;;;;;;;;;5.85;87.23;94368.25;5100877;28;19938;-74
2024/03/26 07:34:55;;;;;;;;;;;;;;;5.90;85.00;94356.09;5101773;28;19974;-74
2024/03/26 07:37:21;;;;;;;;;;;;;;;5.93;84.85;94348.84;5100867;28;19965;-73
2024/03/26 07:39:47;;;;;;;;;;;;;;;5.95;84.53;94349.41;5100851;28;19981;-70
2024/03/26 07:42:13;;;;;;;;;;;;;;;5.88;83.58;94339.16;5100839;28;19949;-74
2024/03/26 07:44:40;;;;;;;;;;;;;;;5.87;86.41;94356.56;5101617;28;19996;-75
2024/03/26 07:47:07;;;;;;;;;;;;;;;5.88;84.23;94357.38;5100723;28;19933;-75
2024/03/26 07:49:32;;;;;;;;;;;;;;;5.95;84.22;94367.63;5101236;28;19947;-75
2024/03/26 07:51:58;;;;;;;;;;;;;;;5.98;83.86;94374.94;5100614;28;19934;-75
2024/03/26 07:54:24;;;;;;;;;;;;;;;5.98;82.23;94359.34;5101041;28;19953;-75
2024/03/26 07:56:50;;;;;;;;;;;;;;;6.00;84.14;94360.66;5100815;28;20221;-76
2024/03/26 07:59:16;;;;;;;;;;;;;;;6.07;84.12;94363.91;5101327;28;19947;-68
2024/03/26 08:01:41;;;;;;;;;;;;;;;6.15;81.74;94351.47;5100487;28;19944;-67
2024/03/26 08:04:07;;;;;;;;;;;;;;;6.21;81.83;94360.94;5100408;28;19939;-67
2024/03/26 08:06:33;;;;;;;;;;;;;;;6.27;82.12;94365.94;5100924;28;20000;-67
2024/03/26 08:08:59;;;;;;;;;;;;;;;6.36;80.89;94349.91;5090937;28;20021;-67
2024/03/26 08:11:25;;;;;;;;;;;;;;;6.35;77.88;94343.94;5086712;28;20010;-67
2024/03/26 08:13:50;;;;;;;;;;;;;;;6.35;79.17;94348.34;5087319;28;19934;-67
2024/03/26 08:16:17;;;;;;;;;;;;;;;6.39;78.44;94339.81;5086584;28;20226;-67
2024/03/26 08:18:43;;;;;;;;;;;;;;;6.47;79.41;94347.19;5086756;28;19940;-68
2024/03/26 08:21:09;;;;;;;;;;;;;;;6.64;80.02;94343.72;5086550;28;19935;-75
2024/03/26 08:23:35;;;;;;;;;;;;;;;6.91;82.49;94354.94;5087130;28;19947;-73
2024/03/26 08:26:01;;;;;;;;;;;;;;;7.14;80.23;94353.06;5086510;28;19943;-74
2024/03/26 08:28:27;;;;;;;;;;;;;;;7.32;78.56;94334.44;5086479;28;19959;-73
2024/03/26 08:30:53;;;;;;;;;;;;;;;7.51;77.69;94331.44;5086402;28;20114;-74
2024/03/26 08:33:22;;;;;;;;;;;;;;;7.65;76.09;94331.81;5086384;28;20144;-73
2024/03/26 08:35:47;;;;;;;;;;;;;;;7.77;75.72;94324.59;5086368;28;19935;-77
2024/03/26 08:38:13;;;;;;;;;;;;;;;7.99;75.99;94326.25;5086194;28;20236;-76
2024/03/26 08:40:40;;;;;;;;;;;;;;;8.24;72.58;94310.72;5087009;28;19938;-77
2024/03/26 08:43:07;;;;;;;;;;;;;;;8.48;71.48;94316.31;5086243;28;19938;-76
2024/03/26 08:45:39;;;;;;;;;;;;;;;8.70;71.30;94313.50;5086698;28;19942;-77
2024/03/26 08:48:05;;;;;;;;;;;;;;;8.87;69.02;94302.03;5086141;28;20199;-77
2024/03/26 08:50:31;;;;;;;;;;;;;;;9.05;68.32;94298.91;5086068;28;19944;-77
2024/03/26 08:52:57;;;;;;;;;;;;;;;9.22;67.50;94303.88;5086025;28;19935;-77
2024/03/26 08:55:23;;;;;;;;;;;;;;;9.39;65.80;94308.06;5086735;28;20119;-75
2024/03/26 08:57:49;;;;;;;;;;;;;;;9.44;64.18;94313.28;5085741;28;19989;-76
2024/03/26 09:00:15;;;;;;;;;;;;;;;9.55;64.79;94315.66;5085859;28;20210;-75
2024/03/26 09:02:40;;;;;;;;;;;;;;;9.86;64.87;94306.94;5085811;28;19942;-76
2024/03/26 09:05:06;;;;;;;;;;;;;;;10.34;59.26;94308.13;5085763;28;19939;-76
2024/03/26 09:07:32;;;;;;;;;;;;;;;10.75;58.06;94315.00;5085778;28;19949;-76
2024/03/26 09:09:58;;;;;;;;;;;;;;;11.07;57.66;94303.28;5084516;28;19962;-76
2024/03/26 09:12:24;;;;;;;;;;;;;;;11.34;55.39;94308.84;5085697;28;19976;-71
2024/03/26 09:14:50;;;;;;;;;;;;;;;11.49;54.51;94304.53;5085683;28;20009;-67
2024/03/26 09:17:16;;;;;;;;;;;;;;;11.52;54.17;94307.38;5086299;28;20480;-77
2024/03/26 09:19:41;;;;;;;;;;;;;;;11.43;52.53;94303.78;5084681;28;19938;-77
2024/03/26 09:22:08;;;;;;;;;;;;;;;11.37;54.04;94291.75;5085218;28;19929;-77
2024/03/26 09:24:33;;;;;;;;;;;;;;;11.48;55.32;94289.84;5085392;28;19942;-76
2024/03/26 09:26:59;;;;;;;;;;;;;;;11.64;51.89;94287.88;5085837;28;19938;-77
2024/03/26 09:29:25;;;;;;;;;;;;;;;11.84;53.91;94292.13;5085268;28;19978;-76
2024/03/26 09:31:51;;;;;;;;;;;;;;;11.95;51.44;94291.78;5085264;28;19929;-77
2024/03/26 09:34:17;;;;;;;;;;;;;;;12.16;54.31;94292.34;5085188;28;19939;-76
2024/03/26 09:36:43;;;;;;;;;;;;;;;12.30;46.74;94279.28;5083936;28;19943;-76
2024/03/26 09:39:09;;;;;;;;;;;;;;;12.45;49.16;94278.34;5085586;28;19958;-76
2024/03/26 09:41:36;;;;;;;;;;;;;;;12.63;50.48;94281.25;5085077;28;20123;-76
2024/03/26 09:44:03;;;;;;;;;;;;;;;12.84;50.37;94281.75;5084962;28;19935;-77
2024/03/26 09:46:30;;;;;;;;;;;;;;;13.04;48.03;94276.19;5085758;28;19939;-76
2024/03/26 09:48:57;;;;;;;;;;;;;;;13.19;49.10;94265.44;5084918;28;19935;-71
2024/03/26 09:51:23;;;;;;;;;;;;;;;13.11;47.41;94258.19;5085437;28;19960;-77
2024/03/26 09:53:49;;;;;;;;;;;;;;;13.11;49.60;94266.09;5084801;28;19934;-74
2024/03/26 09:56:15;;;;;;;;;;;;;;;12.90;48.45;94262.22;5084555;28;19973;-74
2024/03/26 09:58:44;;;;;;;;;;;;;;;12.79;51.14;94257.09;5084966;28;20252;-74
2024/03/26 10:01:11;;;;;;;;;;;;;;;13.03;49.94;94252.81;5084669;28;19980;-74
2024/03/26 10:03:36;;;;;;;;;;;;;;;13.32;48.35;94242.09;5084621;28;19945;-75
2024/03/26 10:06:02;;;;;;;;;;;;;;;13.38;46.61;94239.09;5085413;28;19933;-74
2024/03/26 10:08:28;;;;;;;;;;;;;;;13.65;44.58;94240.22;5084529;28;19960;-67
2024/03/26 10:10:55;;;;;;;;;;;;;;;13.85;49.51;94236.41;5084545;28;20074;-77
2024/03/26 10:13:22;;;;;;;;;;;;;;;14.16;49.76;94233.19;5085047;28;19955;-77
2024/03/26 10:15:52;;;;;;;;;;;;;;;14.34;47.81;94224.41;5084438;28;19935;-77
2024/03/26 10:18:18;;;;;;;;;;;;;;;14.54;47.66;94225.81;5084362;28;19957;-77
2024/03/26 10:20:43;;;;;;;;;;;;;;;14.89;46.59;94217.41;5084970;28;19933;-77
2024/03/26 10:23:09;;;;;;;;;;;;;;;15.13;44.59;94211.84;5083075;28;19966;-77
2024/03/26 10:25:35;;;;;;;;;;;;;;;15.20;42.85;94201.63;5084614;28;19954;-73
2024/03/26 10:28:02;;;;;;;;;;;;;;;15.34;44.07;94197.06;5085054;28;19934;-77
2024/03/26 10:30:29;;;;;;;;;;;;;;;15.61;42.50;94195.31;5084257;28;20130;-77
2024/03/26 10:32:56;;;;;;;;;;;;;;;15.79;42.51;94193.53;5084495;28;19940;-77
2024/03/26 10:35:22;;;;;;;;;;;;;;;15.86;41.91;94188.59;5084460;28;19940;-77
2024/03/26 10:37:52;;;;;;;;;;;;;;;15.86;43.70;94191.25;5084140;28;20141;-77
2024/03/26 10:40:25;;;;;;;;;;;;;;;15.95;44.56;94191.28;5084383;28;20136;-77
2024/03/26 10:42:52;;;;;;;;;;;;;;;15.95;35.10;94180.69;5084121;28;19962;-77
2024/03/26 10:45:18;;;;;;;;;;;;;;;16.12;41.33;94180.72;5084080;28;19950;-77
2024/03/26 10:47:45;;;;;;;;;;;;;;;16.47;42.34;94177.38;5084051;28;19941;-67
2024/03/26 10:50:11;;;;;;;;;;;;;;;16.63;38.50;94170.50;5084014;28;19968;-67
2024/03/26 10:52:39;;;;;;;;;;;;;;;16.54;38.20;94170.50;5083952;28;19935;-68
2024/03/26 10:55:06;;;;;;;;;;;;;;;16.64;38.18;94164.91;5083916;28;19938;-67
2024/03/26 10:57:33;;;;;;;;;;;;;;;16.94;40.34;94153.72;5083703;28;19971;-68
2024/03/26 10:59:59;;;;;;;;;;;;;;;17.17;35.86;94152.41;5083859;28;19944;-68
2024/03/26 11:02:25;;;;;;;;;;;;;;;17.29;35.99;94143.81;5083841;28;19939;-74
2024/03/26 11:04:51;;;;;;;;;;;;;;;17.37;33.48;94144.88;5083918;28;20106;-76
2024/03/26 11:07:20;;;;;;;;;;;;;;;17.58;35.42;94142.31;5084621;28;19976;-77
2024/03/26 11:09:46;;;;;;;;;;;;;;;17.77;35.72;94133.97;5083781;28;19957;-77
2024/03/26 11:12:12;;;;;;;;;;;;;;;17.93;31.88;94132.34;5083824;28;19942;-78
2024/03/26 11:14:41;;;;;;;;;;;;;;;17.78;32.64;94130.22;5083801;28;19943;-78
2024/03/26 11:17:11;;;;;;;;;;;;;;;17.65;34.07;94127.47;5083689;28;19960;-78
2024/03/26 11:19:39;;;;;;;;;;;;;;;17.81;33.23;94118.97;5083862;28;19935;-77
2024/03/26 11:22:04;;;;;;;;;;;;;;;18.10;33.17;94115.56;5084003;28;20307;-71
2024/03/26 11:24:31;;;;;;;;;;;;;;;18.16;32.41;94113.47;5083680;28;19930;-68
2024/03/26 11:27:00;;;;;;;;;;;;;;;18.21;32.42;94113.28;5083659;28;20246;-68
2024/03/26 11:29:30;;;;;;;;;;;;;;;18.22;30.56;94109.53;5083649;28;19938;-68
2024/03/26 11:31:57;;;;;;;;;;;;;;;18.19;32.63;94102.22;5083632;28;19984;-67
2024/03/26 11:34:24;;;;;;;;;;;;;;;18.30;30.79;94105.28;5083565;28;19937;-68
2024/03/26 11:36:54;;;;;;;;;;;;;;;18.50;32.13;94085.91;5083532;28;19932;-68
2024/03/26 11:39:21;;;;;;;;;;;;;;;18.53;30.44;94087.13;5083468;28;20143;-74
2024/03/26 11:41:48;;;;;;;;;;;;;;;18.45;29.56;94078.13;5083564;28;19941;-78
2024/03/26 11:44:14;;;;;;;;;;;;;;;18.38;30.48;94085.84;5085590;28;19939;-71
2024/03/26 11:46:40;;;;;;;;;;;;;;;18.42;26.93;94078.81;5087508;28;19934;-71
2024/03/26 11:49:07;;;;;;;;;;;;;;;18.38;28.21;94078.66;5087189;28;19940;-71
2024/03/26 11:51:35;;;;;;;;;;;;;;;18.37;30.13;94078.97;5087698;28;19939;-72
2024/03/26 11:54:01;;;;;;;;;;;;;;;18.53;30.32;94069.31;5087103;28;19939;-71
2024/03/26 11:56:27;;;;;;;;;;;;;;;18.56;28.52;94067.88;5086938;28;20025;-71
2024/03/26 11:58:52;;;;;;;;;;;;;;;18.34;28.72;94069.03;5087043;28;19956;-74
2024/03/26 12:01:22;;;;;;;;;;;;;;;18.33;27.55;94060.31;5087069;28;20010;-79
2024/03/26 12:03:55;;;;;;;;;;;;;;;18.33;27.30;94060.31;5086983;28;19936;-78
2024/03/26 12:06:23;;;;;;;;;;;;;;;18.40;28.62;94051.81;5087776;28;19931;-78
2024/03/26 12:08:50;;;;;;;;;;;;;;;18.48;29.65;94040.34;5086855;28;19959;-78
2024/03/26 12:11:16;;;;;;;;;;;;;;;18.47;27.29;94044.09;5086745;28;19946;-78
2024/03/26 12:13:42;;;;;;;;;;;;;;;18.49;26.96;94033.16;5086628;28;19932;-78
2024/03/26 12:16:24;;;;;;;;;;;;;;;18.66;28.08;94031.09;5086732;28;19958;-78
2024/03/26 12:18:56;;;;;;;;;;;;;;;18.75;25.53;94022.25;5086652;28;19952;-76
2024/03/26 12:21:24;;;;;;;;;;;;;;;18.75;25.87;94012.44;5086654;28;19941;-68
2024/03/26 12:23:50;;;;;;;;;;;;;;;18.73;26.67;94022.63;5086593;28;19935;-67
2024/03/26 12:26:16;;;;;;;;;;;;;;;18.78;28.33;94003.84;5086479;28;19934;-67
2024/03/26 12:28:42;;;;;;;;;;;;;;;18.73;26.83;94012.00;5086304;28;19943;-67
2024/03/26 12:31:09;;;;;;;;;;;;;;;18.66;26.95;94009.09;5086403;28;19933;-67
2024/03/26 12:33:35;;;;;;;;;;;;;;;18.53;26.10;93996.91;5087198;28;19941;-68
2024/03/26 12:36:02;;;;;;;;;;;;;;;18.48;26.99;93992.59;5086876;28;19994;-79
2024/03/26 12:38:28;;;;;;;;;;;;;;;18.46;27.93;94002.75;5086631;28;19954;-78
2024/03/26 12:40:54;;;;;;;;;;;;;;;18.47;25.99;93991.00;5086738;28;19939;-80
2024/03/26 12:43:20;;;;;;;;;;;;;;;18.59;26.44;93977.78;5084872;28;20239;-79
2024/03/26 12:45:46;;;;;;;;;;;;;;;18.74;27.30;93984.34;5086215;28;19938;-79
2024/03/26 12:48:12;;;;;;;;;;;;;;;18.63;28.08;93976.03;5084860;28;19942;-79